Etusivu
METAR-TAF:

METAR-TAF

Lentoasemat :

Maastricht Aachen, Alankomaat

Leveyspiiri: 50-55N, Pituuspiiri: 005-47E, korkeus merenpinnasta: 114 m

Tämänhetkinen sää

Tämä raportti tehtiin 21 minuuttia sitten, kello 19.25 UTC
Tuuli 9 kn pohjoisesta/koillisesta, vaihdellen pohjoisen ja idän/koillisen välillä
Lämpötila 17°C
Kosteus 39%
Ilmanpaine 1029 hPa
Näkyvyys 10 km tai enemmän

METAR: EHBK 281925Z AUTO 03009KT 360V060 9999 NSC 17/03 Q1029 NOSIG

Aika: 21:46 (19:46 UTC)

Sääennuste

Tämä raportti tehtiin 3 tuntia ja 3 minuuttia sitten, kello 16.43 UTC
Ennuste voimassa 28. päivästä klo 18 UTC - 29. päivään klo 24 UTC
Tuuli 10 kn koillisesta
Näkyvyys 10 km tai enemmän
ei pilviä alle 1500 m:ssä eikä cumulonimbus-pilviä

TAF: EHBK 281643Z 2818/2924 05010KT CAVOK

Säähavainnot ja -ennusteet yli 4000 lentoasemalta (METAR- ja TAF-raportit).

Käytössä olevat sääasemat on merkitty karttaan keltaisilla ja punaisilla pisteillä.

Aseta hiiri pisteen päälle nähdäksesi sääaseman nimen.

Klikkaa sitten nähdäksesi säähavainnot ja -ennusteet.

Kartan vaihtaminen: klikkaa mustalla rastilla varustettuja vihreitä pisteitä, niin voit zoomata sisään; viivalla varustettua vihreää pistettä, niin voit zoomata ulos tai vihreitä nuolia, niin pääset viereisille kartoille.


METAR-TAF: